Clifford A. Barnes — WRN5495 — position and weather

sailwx.info

Track history (hours):
 
Tides and Currents Weather Stations Pressure Air Temp Water Temp Dewpoint Dewpoint Depression Visibility Wind Speed Wind Dir Waves Ship Positions

Oceanographic research ship Clifford A. Barnes (USA)

Ship's website: http://www.ocean.washington.edu/vessels/CAB/cab.html

Detailed information on ship capabilities available from University of Delaware's Ocean Information Center.

Owner: UNIVERSITY OF WASHINGTON, SEATTLE, WA. More information available from US FCC via Universal Licensing System.

Last reported at 2017-Aug-18 01:58 UTC. Time now 2017-Aug-20 09:52 UTC.
Position N 47°21' W 123°04'.

Length 22 m.

Type: Other ship. MMSI: 366918910.

Date/timePositionNaut miles runAvg speedWind from/ knotsBaromVisibWave heightAir tempDewpointWater temp
2017-Aug-18 01:58N 47°21' W 123°04'1 0.0
2017-Aug-16 17:05N 47°21' W 123°03'1 0.0
2017-Aug-16 00:59N 47°21' W 123°04'3 7.1
2017-Aug-16 00:30N 47°24' W 123°07'4 8.9
2017-Aug-16 00:00N 47°28' W 123°05'5 9.1
2017-Aug-15 23:30N 47°32' W 123°02'5 9.1
2017-Aug-15 23:00N 47°36' W 122°58'5 9.0
2017-Aug-15 22:30N 47°39' W 122°53'4 8.6
2017-Aug-15 22:00N 47°41' W 122°47'9 8.3
2017-Aug-15 20:59N 47°48' W 122°42'4 8.5
2017-Aug-15 20:30N 47°51' W 122°38'6 7.8
2017-Aug-15 19:47N 47°57' W 122°38'2 7.3
2017-Aug-15 19:29N 47°56' W 122°34'4 8.3
2017-Aug-15 19:00N 47°55' W 122°29'4 8.4
2017-Aug-15 18:30N 47°51' W 122°27'4 8.9
2017-Aug-15 18:00N 47°47' W 122°25'4 8.5
2017-Aug-15 17:30N 47°42' W 122°25'3 4.7
2017-Aug-15 16:58N 47°40' W 122°24'1 1.1
2017-Aug-15 16:29N 47°40' W 122°23'0 0.0
2017-Aug-15 15:59N 47°40' W 122°23'0 0.0
2017-Aug-15 15:29N 47°40' W 122°23'1 1.7
2017-Aug-15 15:00N 47°39' W 122°22'2 3.5
2017-Aug-15 14:22N 47°39' W 122°19'0 0.0
2017-Aug-15 13:52N 47°39' W 122°19'0 0.0
2017-Aug-15 13:25N 47°39' W 122°19'0 0.0
2017-Aug-15 12:55N 47°39' W 122°19'0 0.0
2017-Aug-15 12:28N 47°39' W 122°19'0 0.0
2017-Aug-15 11:58N 47°39' W 122°19'0 0.0
2017-Aug-15 11:28N 47°39' W 122°19'0 0.0
2017-Aug-15 10:58N 47°39' W 122°19'0 0.0
2017-Aug-15 10:28N 47°39' W 122°19'0 0.0
2017-Aug-15 09:58N 47°39' W 122°19'0 0.0
2017-Aug-15 09:28N 47°39' W 122°19'0 0.0
2017-Aug-15 08:58N 47°39' W 122°19'0 0.0
2017-Aug-15 08:28N 47°39' W 122°19'0 0.0
2017-Aug-15 07:58N 47°39' W 122°19'0 0.0
2017-Aug-15 07:19N 47°39' W 122°19'0 0.0
2017-Aug-15 06:58N 47°39' W 122°19'0 0.0
2017-Aug-15 06:28N 47°39' W 122°19'0 0.0
2017-Aug-15 01:58N 47°39' W 122°19'0 0.0
2017-Aug-15 00:22N 47°39' W 122°19'0 0.0
2017-Aug-14 23:46N 47°39' W 122°19'0 0.0
2017-Aug-14 23:22N 47°39' W 122°19'0 0.0
2017-Aug-14 22:55N 47°39' W 122°19'0 0.0
2017-Aug-14 22:22N 47°39' W 122°19'0 0.0
2017-Aug-14 21:55N 47°39' W 122°19'0 0.0
2017-Aug-14 21:25N 47°39' W 122°19'0 0.0
2017-Aug-14 21:01N 47°39' W 122°19'0 0.0
2017-Aug-14 20:28N 47°39' W 122°19'0 0.0
2017-Aug-14 20:01N 47°39' W 122°19'0 0.0
2017-Aug-14 19:30N 47°39' W 122°19'0 0.0
2017-Aug-14 19:00N 47°39' W 122°19'0 0.0
2017-Aug-14 18:30N 47°39' W 122°19'0 0.0
2017-Aug-14 18:00N 47°39' W 122°19'0 0.0
2017-Aug-14 17:27N 47°39' W 122°19'0 0.0
2017-Aug-14 16:57N 47°39' W 122°19'  
Track history (hours):
 
Tides and Currents Weather Stations Pressure Air Temp Water Temp Dewpoint Dewpoint Depression Visibility Wind Speed Wind Dir Waves Ship Positions

Oceanographic research ship Clifford A. Barnes (USA)

Ship's website: http://www.ocean.washington.edu/vessels/CAB/cab.html

Detailed information on ship capabilities available from University of Delaware's Ocean Information Center.

Owner: UNIVERSITY OF WASHINGTON, SEATTLE, WA. More information available from US FCC via Universal Licensing System.

Last reported at 2017-Aug-18 01:58 UTC. Time now 2017-Aug-20 09:52 UTC.
Position N 47°21' W 123°04'.

Length 22 m.

Type: Other ship. MMSI: 366918910.

Date/timePositionNaut miles runAvg speedWind from/ knotsBaromVisibWave heightAir tempDewpointWater temp
2017-Aug-18 01:58N 47°21' W 123°04'1 0.0
2017-Aug-16 17:05N 47°21' W 123°03'1 0.0
2017-Aug-16 00:59N 47°21' W 123°04'3 7.1
2017-Aug-16 00:30N 47°24' W 123°07'4 8.9
2017-Aug-16 00:00N 47°28' W 123°05'5 9.1
2017-Aug-15 23:30N 47°32' W 123°02'5 9.1
2017-Aug-15 23:00N 47°36' W 122°58'5 9.0
2017-Aug-15 22:30N 47°39' W 122°53'4 8.6
2017-Aug-15 22:00N 47°41' W 122°47'9 8.3
2017-Aug-15 20:59N 47°48' W 122°42'4 8.5
2017-Aug-15 20:30N 47°51' W 122°38'6 7.8
2017-Aug-15 19:47N 47°57' W 122°38'2 7.3
2017-Aug-15 19:29N 47°56' W 122°34'4 8.3
2017-Aug-15 19:00N 47°55' W 122°29'4 8.4
2017-Aug-15 18:30N 47°51' W 122°27'4 8.9
2017-Aug-15 18:00N 47°47' W 122°25'4 8.5
2017-Aug-15 17:30N 47°42' W 122°25'3 4.7
2017-Aug-15 16:58N 47°40' W 122°24'1 1.1
2017-Aug-15 16:29N 47°40' W 122°23'0 0.0
2017-Aug-15 15:59N 47°40' W 122°23'0 0.0
2017-Aug-15 15:29N 47°40' W 122°23'1 1.7
2017-Aug-15 15:00N 47°39' W 122°22'2 3.5
2017-Aug-15 14:22N 47°39' W 122°19'0 0.0
2017-Aug-15 13:52N 47°39' W 122°19'0 0.0
2017-Aug-15 13:25N 47°39' W 122°19'0 0.0
2017-Aug-15 12:55N 47°39' W 122°19'0 0.0
2017-Aug-15 12:28N 47°39' W 122°19'0 0.0
2017-Aug-15 11:58N 47°39' W 122°19'0 0.0
2017-Aug-15 11:28N 47°39' W 122°19'0 0.0
2017-Aug-15 10:58N 47°39' W 122°19'0 0.0
2017-Aug-15 10:28N 47°39' W 122°19'0 0.0
2017-Aug-15 09:58N 47°39' W 122°19'0 0.0
2017-Aug-15 09:28N 47°39' W 122°19'0 0.0
2017-Aug-15 08:58N 47°39' W 122°19'0 0.0
2017-Aug-15 08:28N 47°39' W 122°19'0 0.0
2017-Aug-15 07:58N 47°39' W 122°19'0 0.0
2017-Aug-15 07:19N 47°39' W 122°19'0 0.0
2017-Aug-15 06:58N 47°39' W 122°19'0 0.0
2017-Aug-15 06:28N 47°39' W 122°19'0 0.0
2017-Aug-15 01:58N 47°39' W 122°19'0 0.0
2017-Aug-15 00:22N 47°39' W 122°19'0 0.0
2017-Aug-14 23:46N 47°39' W 122°19'0 0.0
2017-Aug-14 23:22N 47°39' W 122°19'0 0.0
2017-Aug-14 22:55N 47°39' W 122°19'0 0.0
2017-Aug-14 22:22N 47°39' W 122°19'0 0.0
2017-Aug-14 21:55N 47°39' W 122°19'0 0.0
2017-Aug-14 21:25N 47°39' W 122°19'0 0.0
2017-Aug-14 21:01N 47°39' W 122°19'0 0.0
2017-Aug-14 20:28N 47°39' W 122°19'0 0.0
2017-Aug-14 20:01N 47°39' W 122°19'0 0.0
2017-Aug-14 19:30N 47°39' W 122°19'0 0.0
2017-Aug-14 19:00N 47°39' W 122°19'0 0.0
2017-Aug-14 18:30N 47°39' W 122°19'0 0.0
2017-Aug-14 18:00N 47°39' W 122°19'0 0.0
2017-Aug-14 17:27N 47°39' W 122°19'0 0.0
2017-Aug-14 16:57N 47°39' W 122°19'  

Dump ship's entire track history